createdAt,value
2016-05-10T00:00:09.233Z,19.3
2016-05-10T00:00:19.252Z,19.1
2016-05-10T00:00:29.252Z,19.1
2016-05-10T00:00:39.252Z,19.1
2016-05-10T00:00:49.252Z,19.1
2016-05-10T00:00:59.252Z,19.1
2016-05-10T00:01:09.252Z,19.2
2016-05-10T00:01:19.113Z,19.2
2016-05-10T00:01:29.113Z,19.2
2016-05-10T00:01:39.269Z,19.1
2016-05-10T00:01:49.269Z,19.2
2016-05-10T00:01:59.269Z,19.1
2016-05-10T00:02:09.285Z,19.2
2016-05-10T00:02:19.272Z,19.1
2016-05-10T00:02:29.132Z,19.1
2016-05-10T00:02:39.288Z,19.1
2016-05-10T00:02:49.288Z,19.1
2016-05-10T00:02:59.319Z,19.1
2016-05-10T00:03:09.288Z,19.1
2016-05-10T00:03:19.307Z,19.2
2016-05-10T00:03:29.322Z,19.2
2016-05-10T00:03:39.291Z,19.2
2016-05-10T00:03:49.307Z,19.1
2016-05-10T00:03:59.307Z,19.2
2016-05-10T00:04:09.307Z,19.1
2016-05-10T00:04:19.310Z,19.1
2016-05-10T00:04:29.325Z,19.1
2016-05-10T00:04:39.325Z,19.1
2016-05-10T00:04:49.325Z,19.1
2016-05-10T00:04:59.325Z,19.2
2016-05-10T00:05:09.325Z,19.1
2016-05-10T00:05:19.327Z,19.1
2016-05-10T00:05:29.343Z,19.1
2016-05-10T00:05:39.343Z,19.1
2016-05-10T00:05:49.343Z,19.1
2016-05-10T00:05:59.343Z,19.1
2016-05-10T00:06:09.343Z,19.1
2016-05-10T00:06:19.346Z,19.1
2016-05-10T00:06:29.346Z,19.1
2016-05-10T00:06:39.346Z,19.1
2016-05-10T00:06:49.362Z,19.1
2016-05-10T00:06:59.205Z,19.1
2016-05-10T00:07:09.362Z,19.1
2016-05-10T00:07:19.365Z,18.9
2016-05-10T00:07:29.365Z,19.1
2016-05-10T00:07:39.224Z,19
2016-05-10T00:07:49.380Z,19
2016-05-10T00:07:59.380Z,19
2016-05-10T00:08:09.380Z,18.9
2016-05-10T00:08:19.382Z,19.1
2016-05-10T00:08:29.382Z,19.1
2016-05-10T00:08:39.382Z,19
2016-05-10T00:08:49.242Z,19
2016-05-10T00:08:59.398Z,19
2016-05-10T00:09:09.398Z,19
2016-05-10T00:09:19.401Z,19
2016-05-10T00:09:29.416Z,19.1
2016-05-10T00:09:39.416Z,19.1
2016-05-10T00:09:49.401Z,18.9
2016-05-10T00:09:59.416Z,19.1
2016-05-10T00:10:09.416Z,19
2016-05-10T00:10:19.419Z,19
2016-05-10T00:10:29.419Z,19
2016-05-10T00:10:39.435Z,19
2016-05-10T00:10:49.435Z,19
2016-05-10T00:10:59.435Z,19
2016-05-10T00:11:09.435Z,19
2016-05-10T00:11:19.438Z,19
2016-05-10T00:11:29.438Z,19
2016-05-10T00:11:39.438Z,19
2016-05-10T00:11:49.454Z,19
2016-05-10T00:11:59.438Z,19
2016-05-10T00:12:09.454Z,19
2016-05-10T00:12:19.483Z,19
2016-05-10T00:12:29.483Z,19
2016-05-10T00:12:39.498Z,19
2016-05-10T00:12:49.483Z,19
2016-05-10T00:12:59.498Z,18.9
2016-05-10T00:13:09.498Z,18.9
2016-05-10T00:13:19.542Z,19
2016-05-10T00:13:29.542Z,18.9
2016-05-10T00:13:39.542Z,19
2016-05-10T00:13:49.558Z,19
2016-05-10T00:13:59.558Z,19
2016-05-10T00:14:10.402Z,18.9
2016-05-10T00:14:20.883Z,18.9
2016-05-10T00:14:30.883Z,18.9
2016-05-10T00:14:40.836Z,18.9
2016-05-10T00:14:50.149Z,18.9
2016-05-10T00:14:59.461Z,18.9
2016-05-10T00:15:09.493Z,19
2016-05-10T00:15:19.662Z,18.9
2016-05-10T00:15:29.662Z,18.9
2016-05-10T00:15:39.677Z,18.9
2016-05-10T00:15:49.662Z,18.9
2016-05-10T00:15:59.662Z,19
2016-05-10T00:16:09.662Z,18.9
2016-05-10T00:16:19.721Z,18.9
2016-05-10T00:16:29.721Z,18.9
2016-05-10T00:16:39.721Z,19
2016-05-10T00:16:49.721Z,19
2016-05-10T00:16:59.846Z,18.9
2016-05-10T00:17:09.581Z,18.9
2016-05-10T00:17:19.747Z,18.9
2016-05-10T00:17:29.763Z,19
2016-05-10T00:17:39.763Z,18.9
2016-05-10T00:17:49.794Z,18.9
2016-05-10T00:17:59.763Z,18.9
2016-05-10T00:18:09.622Z,18.9
2016-05-10T00:18:19.795Z,18.9
2016-05-10T00:18:29.795Z,19
2016-05-10T00:18:39.795Z,18.9
2016-05-10T00:18:49.795Z,19
2016-05-10T00:18:59.795Z,18.9
2016-05-10T00:19:09.811Z,18.9
2016-05-10T00:19:19.828Z,18.9
2016-05-10T00:19:29.828Z,18.9
2016-05-10T00:19:39.828Z,19
2016-05-10T00:19:49.828Z,18.9
2016-05-10T00:19:59.828Z,19
2016-05-10T00:20:09.828Z,18.9
2016-05-10T00:20:19.705Z,18.9
2016-05-10T00:20:29.846Z,18.9
2016-05-10T00:20:39.705Z,18.9
2016-05-10T00:20:49.862Z,18.9
2016-05-10T00:20:59.862Z,19
2016-05-10T00:21:09.862Z,18.9
2016-05-10T00:21:19.894Z,18.9
2016-05-10T00:21:29.894Z,18.9
2016-05-10T00:21:39.894Z,18.9
2016-05-10T00:21:49.894Z,18.9
2016-05-10T00:21:59.738Z,18.9
2016-05-10T00:22:09.894Z,18.9
2016-05-10T00:22:19.905Z,18.9
2016-05-10T00:22:29.921Z,18.9
2016-05-10T00:22:39.937Z,18.9
2016-05-10T00:22:49.921Z,18.8
2016-05-10T00:22:59.780Z,18.9
2016-05-10T00:23:09.921Z,18.9
2016-05-10T00:23:19.929Z,18.9
2016-05-10T00:23:29.929Z,18.9
2016-05-10T00:23:39.788Z,18.9
2016-05-10T00:23:49.945Z,18.9
2016-05-10T00:23:59.788Z,18.9
2016-05-10T00:24:09.788Z,18.9
2016-05-10T00:24:19.954Z,18.9
2016-05-10T00:24:29.954Z,18.9
2016-05-10T00:24:39.954Z,19
2016-05-10T00:24:49.969Z,18.9
2016-05-10T00:24:59.829Z,18.8
2016-05-10T00:25:09.813Z,18.8
2016-05-10T00:25:19.976Z,18.9
2016-05-10T00:25:29.976Z,18.9
2016-05-10T00:25:39.992Z,18.9
2016-05-10T00:25:49.992Z,18.8
2016-05-10T00:25:59.992Z,18.9
2016-05-10T00:26:10.007Z,18.8
2016-05-10T00:26:20.031Z,18.8
2016-05-10T00:26:30.031Z,18.8
2016-05-10T00:26:40.000Z,18.8
2016-05-10T00:26:50.015Z,18.9
2016-05-10T00:27:00.015Z,18.8
2016-05-10T00:27:10.031Z,18.8
2016-05-10T00:27:20.021Z,18.8
2016-05-10T00:27:30.021Z,18.8
2016-05-10T00:27:40.021Z,18.8
2016-05-10T00:27:50.021Z,18.8
2016-05-10T00:28:00.037Z,18.8
2016-05-10T00:28:10.037Z,18.8
2016-05-10T00:28:20.042Z,18.8
2016-05-10T00:28:30.042Z,18.8
2016-05-10T00:28:40.042Z,18.8
2016-05-10T00:28:50.042Z,18.8
2016-05-10T00:29:00.042Z,18.8
2016-05-10T00:29:10.448Z,18.8
2016-05-10T00:29:20.063Z,18.8
2016-05-10T00:29:29.906Z,18.8
2016-05-10T00:29:41.422Z,18.8
2016-05-10T00:29:50.063Z,18.8
2016-05-10T00:30:00.078Z,18.8
2016-05-10T00:30:09.922Z,18.8
2016-05-10T00:30:20.082Z,18.8
2016-05-10T00:30:30.082Z,18.8
2016-05-10T00:30:40.098Z,18.8
2016-05-10T00:30:50.082Z,18.8
2016-05-10T00:31:00.098Z,18.8
2016-05-10T00:31:10.098Z,18.8
2016-05-10T00:31:20.134Z,18.8
2016-05-10T00:31:30.103Z,18.8
2016-05-10T00:31:39.978Z,18.7
2016-05-10T00:31:50.103Z,18.8
2016-05-10T00:32:00.119Z,18.8
2016-05-10T00:32:10.119Z,18.8
2016-05-10T00:32:20.122Z,18.8
2016-05-10T00:32:30.122Z,18.8
2016-05-10T00:32:40.137Z,18.8
2016-05-10T00:32:50.122Z,18.8
2016-05-10T00:33:00.122Z,18.8
2016-05-10T00:33:10.122Z,18.8
2016-05-10T00:33:20.126Z,18.8
2016-05-10T00:33:30.141Z,18.7
2016-05-10T00:33:40.141Z,18.8
2016-05-10T00:33:50.141Z,18.8
2016-05-10T00:34:00.141Z,18.8
2016-05-10T00:34:10.157Z,18.8
2016-05-10T00:34:20.144Z,18.8
2016-05-10T00:34:30.160Z,18.7
2016-05-10T00:34:40.160Z,18.8
2016-05-10T00:34:50.160Z,18.8
2016-05-10T00:35:00.160Z,18.8
2016-05-10T00:35:10.175Z,18.8
2016-05-10T00:35:20.195Z,18.8
2016-05-10T00:35:30.179Z,18.8
2016-05-10T00:35:40.179Z,18.8
2016-05-10T00:35:50.179Z,18.8
2016-05-10T00:36:00.179Z,18.8
2016-05-10T00:36:10.039Z,18.8
2016-05-10T00:36:20.198Z,18.8
2016-05-10T00:36:30.198Z,18.8
2016-05-10T00:36:40.182Z,18.8
2016-05-10T00:36:50.198Z,18.7
2016-05-10T00:37:00.198Z,18.8
2016-05-10T00:37:10.198Z,18.8
2016-05-10T00:37:20.201Z,18.8
2016-05-10T00:37:30.217Z,18.8
2016-05-10T00:37:40.217Z,18.8
2016-05-10T00:37:50.201Z,18.7
2016-05-10T00:38:00.217Z,18.7
2016-05-10T00:38:10.217Z,18.8
2016-05-10T00:38:20.064Z,18.7
2016-05-10T00:38:30.236Z,18.8
2016-05-10T00:38:40.221Z,18.8
2016-05-10T00:38:50.221Z,18.7
2016-05-10T00:39:00.252Z,18.8
2016-05-10T00:39:10.236Z,18.8
2016-05-10T00:39:20.254Z,18.7
2016-05-10T00:39:30.254Z,18.8
2016-05-10T00:39:40.254Z,18.7
2016-05-10T00:39:50.254Z,18.7
2016-05-10T00:40:00.098Z,18.8
2016-05-10T00:40:10.254Z,18.7
2016-05-10T00:40:20.273Z,18.7
2016-05-10T00:40:30.257Z,18.7
2016-05-10T00:40:40.413Z,18.8
2016-05-10T00:40:50.273Z,18.7
2016-05-10T00:41:00.288Z,18.8
2016-05-10T00:41:10.273Z,18.8
2016-05-10T00:41:20.307Z,18.7
2016-05-10T00:41:30.276Z,18.7
2016-05-10T00:41:40.291Z,18.8
2016-05-10T00:41:50.291Z,18.7
2016-05-10T00:42:00.291Z,18.8
2016-05-10T00:42:10.291Z,18.7
2016-05-10T00:42:20.294Z,18.8
2016-05-10T00:42:30.294Z,18.7
2016-05-10T00:42:40.310Z,18.7
2016-05-10T00:42:50.310Z,18.7
2016-05-10T00:43:00.310Z,18.7
2016-05-10T00:43:10.310Z,18.8
2016-05-10T00:43:20.313Z,18.8
2016-05-10T00:43:30.313Z,18.7
2016-05-10T00:43:40.313Z,18.7
2016-05-10T00:43:50.313Z,18.7
2016-05-10T00:44:00.328Z,18.7
2016-05-10T00:44:10.313Z,18.8
2016-05-10T00:44:20.330Z,18.6
2016-05-10T00:44:30.174Z,18.7
2016-05-10T00:44:40.330Z,18.7
2016-05-10T00:44:50.346Z,18.7
2016-05-10T00:45:00.346Z,18.7
2016-05-10T00:45:10.190Z,18.8
2016-05-10T00:45:20.350Z,18.7
2016-05-10T00:45:30.350Z,18.7
2016-05-10T00:45:40.350Z,18.7
2016-05-10T00:45:50.350Z,18.7
2016-05-10T00:46:00.366Z,18.6
2016-05-10T00:46:10.350Z,18.7
2016-05-10T00:46:20.368Z,18.7
2016-05-10T00:46:30.368Z,18.6
2016-05-10T00:46:40.368Z,18.8
2016-05-10T00:46:50.368Z,18.6
2016-05-10T00:47:00.368Z,18.7
2016-05-10T00:47:10.383Z,18.7
2016-05-10T00:47:20.371Z,18.7
2016-05-10T00:47:30.371Z,18.7
2016-05-10T00:47:40.386Z,18.7
2016-05-10T00:47:50.402Z,18.7
2016-05-10T00:48:00.386Z,18.7
2016-05-10T00:48:10.386Z,18.6
2016-05-10T00:48:20.264Z,18.7
2016-05-10T00:48:30.405Z,18.6
2016-05-10T00:48:40.405Z,18.7
2016-05-10T00:48:50.405Z,18.7
2016-05-10T00:49:00.421Z,18.7
2016-05-10T00:49:10.405Z,18.6
2016-05-10T00:49:20.407Z,18.7
2016-05-10T00:49:30.423Z,18.7
2016-05-10T00:49:40.423Z,18.6
2016-05-10T00:49:50.423Z,18.7
2016-05-10T00:50:00.423Z,18.7
2016-05-10T00:50:10.423Z,18.7
2016-05-10T00:50:20.488Z,18.7
2016-05-10T00:50:30.426Z,18.7
2016-05-10T00:50:40.426Z,18.7
2016-05-10T00:50:50.441Z,18.7
2016-05-10T00:51:00.285Z,18.7
2016-05-10T00:51:10.441Z,18.6
2016-05-10T00:51:20.443Z,18.7
2016-05-10T00:51:30.459Z,18.7
2016-05-10T00:51:40.443Z,18.7
2016-05-10T00:51:50.303Z,18.6
2016-05-10T00:52:00.459Z,18.6
2016-05-10T00:52:10.459Z,18.6
2016-05-10T00:52:20.462Z,18.5
2016-05-10T00:52:30.462Z,18.6
2016-05-10T00:52:40.462Z,18.6
2016-05-10T00:52:50.477Z,18.6
2016-05-10T00:53:00.477Z,18.6
2016-05-10T00:53:10.477Z,18.6
2016-05-10T00:53:20.480Z,18.6
2016-05-10T00:53:30.496Z,18.7
2016-05-10T00:53:40.480Z,18.6
2016-05-10T00:53:50.480Z,18.6
2016-05-10T00:54:00.496Z,18.7
2016-05-10T00:54:10.496Z,18.7
2016-05-10T00:54:20.499Z,18.6
2016-05-10T00:54:30.499Z,18.6
2016-05-10T00:54:40.515Z,18.6
2016-05-10T00:54:50.515Z,18.6
2016-05-10T00:55:00.515Z,18.7
2016-05-10T00:55:10.515Z,18.6
2016-05-10T00:55:20.518Z,18.6
2016-05-10T00:55:30.518Z,18.6
2016-05-10T00:55:40.518Z,18.6
2016-05-10T00:55:50.377Z,18.6
2016-05-10T00:56:00.518Z,18.7
2016-05-10T00:56:10.533Z,18.6
2016-05-10T00:56:20.535Z,18.6
2016-05-10T00:56:30.535Z,18.6
2016-05-10T00:56:40.535Z,18.6
2016-05-10T00:56:50.535Z,18.6
2016-05-10T00:57:00.535Z,18.7
2016-05-10T00:57:10.535Z,18.6
2016-05-10T00:57:20.554Z,18.6
2016-05-10T00:57:30.554Z,18.6
2016-05-10T00:57:40.413Z,18.6
2016-05-10T00:57:50.570Z,18.6
2016-05-10T00:58:00.570Z,18.6
2016-05-10T00:58:10.570Z,18.6
2016-05-10T00:58:20.572Z,18.6
2016-05-10T00:58:30.572Z,18.6
2016-05-10T00:58:40.572Z,18.6
2016-05-10T00:58:50.572Z,18.6
2016-05-10T00:59:00.572Z,18.6
2016-05-10T00:59:10.931Z,18.6
2016-05-10T00:59:21.403Z,18.5
2016-05-10T00:59:31.559Z,18.5
2016-05-10T00:59:42.293Z,18.6
2016-05-10T00:59:50.606Z,18.6
2016-05-10T01:00:00.606Z,18.6
2016-05-10T01:00:10.590Z,18.6
2016-05-10T01:00:20.453Z,18.5
2016-05-10T01:00:30.593Z,18.7
2016-05-10T01:00:40.609Z,18.6
2016-05-10T01:00:50.624Z,18.6
2016-05-10T01:01:00.609Z,18.5
2016-05-10T01:01:10.609Z,18.5
2016-05-10T01:01:20.470Z,18.5
2016-05-10T01:01:30.626Z,18.6
2016-05-10T01:01:40.626Z,18.5
2016-05-10T01:01:50.626Z,18.5
2016-05-10T01:02:00.642Z,18.6
2016-05-10T01:02:10.626Z,18.4
2016-05-10T01:02:20.629Z,18.5
2016-05-10T01:02:30.489Z,18.5
2016-05-10T01:02:40.489Z,18.5
2016-05-10T01:02:50.645Z,18.5
2016-05-10T01:03:00.645Z,18.6
2016-05-10T01:03:10.645Z,18.5
2016-05-10T01:03:20.648Z,18.5
2016-05-10T01:03:30.648Z,18.6
2016-05-10T01:03:40.664Z,18.5
2016-05-10T01:03:50.648Z,18.5
2016-05-10T01:04:00.664Z,18.5
2016-05-10T01:04:10.664Z,18.5
2016-05-10T01:04:20.682Z,18.5
2016-05-10T01:04:30.682Z,18.6
2016-05-10T01:04:40.682Z,18.5
2016-05-10T01:04:50.682Z,18.6
2016-05-10T01:05:00.526Z,18.6
2016-05-10T01:05:10.682Z,18.6
2016-05-10T01:05:20.684Z,18.5
2016-05-10T01:05:30.700Z,18.5
2016-05-10T01:05:40.700Z,18.5
2016-05-10T01:05:50.700Z,18.5
2016-05-10T01:06:00.700Z,18.5
2016-05-10T01:06:10.544Z,18.5
2016-05-10T01:06:20.719Z,18.5
2016-05-10T01:06:30.703Z,18.5
2016-05-10T01:06:40.719Z,18.6
2016-05-10T01:06:50.719Z,18.5
2016-05-10T01:07:00.719Z,18.5
2016-05-10T01:07:10.562Z,18.5
2016-05-10T01:07:20.722Z,18.5
2016-05-10T01:07:30.722Z,18.5
2016-05-10T01:07:40.722Z,18.5
2016-05-10T01:07:50.737Z,18.5
2016-05-10T01:08:00.581Z,18.5
2016-05-10T01:08:10.737Z,18.5
2016-05-10T01:08:20.755Z,18.5
2016-05-10T01:08:30.739Z,18.5
2016-05-10T01:08:40.739Z,18.5
2016-05-10T01:08:50.739Z,18.4
2016-05-10T01:09:00.755Z,18.5
2016-05-10T01:09:10.739Z,18.5
2016-05-10T01:09:20.758Z,18.5
2016-05-10T01:09:30.758Z,18.4
2016-05-10T01:09:40.758Z,18.5
2016-05-10T01:09:50.758Z,18.4
2016-05-10T01:10:00.758Z,18.5
2016-05-10T01:10:10.758Z,18.4
2016-05-10T01:10:20.776Z,18.4
2016-05-10T01:10:30.776Z,18.4
2016-05-10T01:10:40.776Z,18.5
2016-05-10T01:10:50.792Z,18.4
2016-05-10T01:11:00.776Z,18.5
2016-05-10T01:11:10.776Z,18.4
2016-05-10T01:11:20.638Z,18.5
2016-05-10T01:11:30.794Z,18.4
2016-05-10T01:11:40.794Z,18.4
2016-05-10T01:11:50.794Z,18.5
2016-05-10T01:12:00.794Z,18.5
2016-05-10T01:12:10.810Z,18.5
2016-05-10T01:12:20.797Z,18.5
2016-05-10T01:12:30.813Z,18.4
2016-05-10T01:12:40.813Z,18.4
2016-05-10T01:12:50.813Z,18.4
2016-05-10T01:13:00.828Z,18.4
2016-05-10T01:13:10.828Z,18.4
2016-05-10T01:13:20.831Z,18.5
2016-05-10T01:13:30.816Z,18.4
2016-05-10T01:13:40.831Z,18.4
2016-05-10T01:13:50.831Z,18.4
2016-05-10T01:14:00.831Z,18.4
2016-05-10T01:14:11.269Z,18.3
2016-05-10T01:14:21.162Z,18.4
2016-05-10T01:14:30.694Z,18.3
2016-05-10T01:14:40.694Z,18.3
2016-05-10T01:14:50.850Z,18.3
2016-05-10T01:15:00.850Z,18.3
2016-05-10T01:15:10.850Z,18.4
2016-05-10T01:15:20.868Z,18.3
2016-05-10T01:15:30.868Z,18.4
2016-05-10T01:15:40.868Z,18.3
2016-05-10T01:15:50.868Z,18.4
2016-05-10T01:16:00.868Z,18.4
2016-05-10T01:16:10.883Z,18.4
2016-05-10T01:16:20.871Z,18.3
2016-05-10T01:16:30.871Z,18.3
2016-05-10T01:16:40.871Z,18.4
2016-05-10T01:16:50.886Z,18.4
2016-05-10T01:17:00.886Z,18.3
2016-05-10T01:17:10.902Z,18.4
2016-05-10T01:17:20.733Z,18.4
2016-05-10T01:17:30.889Z,18.4
2016-05-10T01:17:40.889Z,18.4
2016-05-10T01:17:50.905Z,18.3
2016-05-10T01:18:00.905Z,18.4
2016-05-10T01:18:10.749Z,18.4
2016-05-10T01:18:20.907Z,18.3
2016-05-10T01:18:30.922Z,18.4
2016-05-10T01:18:40.907Z,18.4
2016-05-10T01:18:50.922Z,18.4
2016-05-10T01:19:00.922Z,18.4
2016-05-10T01:19:10.922Z,18.4
2016-05-10T01:19:20.925Z,18.3
2016-05-10T01:19:30.925Z,18.3
2016-05-10T01:19:40.925Z,18.4
2016-05-10T01:19:50.941Z,18.4
2016-05-10T01:20:00.941Z,18.4
2016-05-10T01:20:10.925Z,18.4
2016-05-10T01:20:20.960Z,18.3
2016-05-10T01:20:30.944Z,18.4
2016-05-10T01:20:40.944Z,18.3
2016-05-10T01:20:50.960Z,18.4
2016-05-10T01:21:00.960Z,18.3
2016-05-10T01:21:10.960Z,18.4
2016-05-10T01:21:20.962Z,18.4
2016-05-10T01:21:30.805Z,18.3
2016-05-10T01:21:40.962Z,18.4
2016-05-10T01:21:50.962Z,18.4
2016-05-10T01:22:00.977Z,18.4
2016-05-10T01:22:10.977Z,18.3
2016-05-10T01:22:20.980Z,18.4
2016-05-10T01:22:30.980Z,18.3
2016-05-10T01:22:40.980Z,18.3
2016-05-10T01:22:50.824Z,18.2
2016-05-10T01:23:00.980Z,18.3
2016-05-10T01:23:10.996Z,18.3
2016-05-10T01:23:20.999Z,18.3
2016-05-10T01:23:30.999Z,18.3
2016-05-10T01:23:40.999Z,18.2
2016-05-10T01:23:51.015Z,18.3
2016-05-10T01:24:00.999Z,18.3
2016-05-10T01:24:10.999Z,18.3
2016-05-10T01:24:21.002Z,18.3
2016-05-10T01:24:31.018Z,18.2
2016-05-10T01:24:40.861Z,18.3
2016-05-10T01:24:51.018Z,18.3
2016-05-10T01:25:01.018Z,18.2
2016-05-10T01:25:11.018Z,18.3
2016-05-10T01:25:21.020Z,18.2
2016-05-10T01:25:30.879Z,18.3
2016-05-10T01:25:41.035Z,18.3
2016-05-10T01:25:51.035Z,18.2
2016-05-10T01:26:01.035Z,18.3
2016-05-10T01:26:11.035Z,18.2
2016-05-10T01:26:21.038Z,18.2
2016-05-10T01:26:30.898Z,18.2
2016-05-10T01:26:41.054Z,18.2
2016-05-10T01:26:51.054Z,18.2
2016-05-10T01:27:01.054Z,18.2
2016-05-10T01:27:11.069Z,18.3
2016-05-10T01:27:21.056Z,18.3
2016-05-10T01:27:31.056Z,18.2
2016-05-10T01:27:41.056Z,18.3
2016-05-10T01:27:50.915Z,18.3
2016-05-10T01:28:01.071Z,18.2
2016-05-10T01:28:11.071Z,18.3
2016-05-10T01:28:20.934Z,18.3
2016-05-10T01:28:31.074Z,18.2
2016-05-10T01:28:41.090Z,18.3
2016-05-10T01:28:51.090Z,18.2
2016-05-10T01:29:01.090Z,18.2
2016-05-10T01:29:11.949Z,18.3
2016-05-10T01:29:21.124Z,18.3
2016-05-10T01:29:30.952Z,18.3
2016-05-10T01:29:41.374Z,18.2
2016-05-10T01:29:51.827Z,18.2
2016-05-10T01:30:01.109Z,18.3
2016-05-10T01:30:11.109Z,18.3
2016-05-10T01:30:21.111Z,18.2
2016-05-10T01:30:31.126Z,18.2
2016-05-10T01:30:41.126Z,18.2
2016-05-10T01:30:51.126Z,18.2
2016-05-10T01:31:01.111Z,18.3
2016-05-10T01:31:11.111Z,18.2
2016-05-10T01:31:21.129Z,18.3
2016-05-10T01:31:31.129Z,18.2
2016-05-10T01:31:41.145Z,18.3
2016-05-10T01:31:51.145Z,18.2
2016-05-10T01:32:01.145Z,18.2
2016-05-10T01:32:11.161Z,18.2
2016-05-10T01:32:21.148Z,18.3
2016-05-10T01:32:31.148Z,18.2
2016-05-10T01:32:40.992Z,18.3
2016-05-10T01:32:51.148Z,18.2
2016-05-10T01:33:01.164Z,18.2
2016-05-10T01:33:11.148Z,18.3
2016-05-10T01:33:21.167Z,18.2
2016-05-10T01:33:31.167Z,18.2
2016-05-10T01:33:41.167Z,18.2
2016-05-10T01:33:51.167Z,18.2
2016-05-10T01:34:01.167Z,18.2
2016-05-10T01:34:11.167Z,18.2
2016-05-10T01:34:21.184Z,18.2
2016-05-10T01:34:31.028Z,18.3
2016-05-10T01:34:41.184Z,18.2
2016-05-10T01:34:51.184Z,18.2
2016-05-10T01:35:01.200Z,18.2
2016-05-10T01:35:11.184Z,18.1
2016-05-10T01:35:21.203Z,18.2
2016-05-10T01:35:31.187Z,18.2
2016-05-10T01:35:41.203Z,18.3
2016-05-10T01:35:51.203Z,18.2
2016-05-10T01:36:01.203Z,18.2
2016-05-10T01:36:11.203Z,18.2
2016-05-10T01:36:21.206Z,18.1
2016-05-10T01:36:31.206Z,18.2
2016-05-10T01:36:41.221Z,18.2
2016-05-10T01:36:51.221Z,18.1
2016-05-10T01:37:01.237Z,18.2
2016-05-10T01:37:11.081Z,18.2
2016-05-10T01:37:21.223Z,18.2
2016-05-10T01:37:31.239Z,18.2
2016-05-10T01:37:41.239Z,18.2
2016-05-10T01:37:51.239Z,18.2
2016-05-10T01:38:01.239Z,18.1
2016-05-10T01:38:11.239Z,18.2
2016-05-10T01:38:21.242Z,18.2
2016-05-10T01:38:31.101Z,18.1
2016-05-10T01:38:41.258Z,18.1
2016-05-10T01:38:51.258Z,18.2
2016-05-10T01:39:01.258Z,18.2
2016-05-10T01:39:11.258Z,18.2
2016-05-10T01:39:21.261Z,18.1
2016-05-10T01:39:31.261Z,18.2
2016-05-10T01:39:41.276Z,18.2
2016-05-10T01:39:51.276Z,18.2
2016-05-10T01:40:01.120Z,18.2
2016-05-10T01:40:11.120Z,18.2
2016-05-10T01:40:21.279Z,18.2
2016-05-10T01:40:31.279Z,18.2
2016-05-10T01:40:41.279Z,18.2
2016-05-10T01:40:51.295Z,18.1
2016-05-10T01:41:01.295Z,18.2
2016-05-10T01:41:11.295Z,18.2
2016-05-10T01:41:21.297Z,18.2
2016-05-10T01:41:31.297Z,18.1
2016-05-10T01:41:41.297Z,18.2
2016-05-10T01:41:51.297Z,18.1
2016-05-10T01:42:01.313Z,18.1
2016-05-10T01:42:11.313Z,18.2
2016-05-10T01:42:21.316Z,18.1
2016-05-10T01:42:31.316Z,18.2
2016-05-10T01:42:41.316Z,18.2
2016-05-10T01:42:51.331Z,18.2
2016-05-10T01:43:01.331Z,18.1
2016-05-10T01:43:11.331Z,18.2
2016-05-10T01:43:21.333Z,18.1
2016-05-10T01:43:31.177Z,18.2
2016-05-10T01:43:41.333Z,18.2
2016-05-10T01:43:51.333Z,18.1
2016-05-10T01:44:01.333Z,18.2
2016-05-10T01:44:11.349Z,18.2
2016-05-10T01:44:22.930Z,18.1
2016-05-10T01:44:31.367Z,18.2
2016-05-10T01:44:41.352Z,18.2
2016-05-10T01:44:51.196Z,18.2
2016-05-10T01:45:01.352Z,18.2
2016-05-10T01:45:11.367Z,18.1
2016-05-10T01:45:21.355Z,18.2
2016-05-10T01:45:31.355Z,18.1
2016-05-10T01:45:41.370Z,18.2
2016-05-10T01:45:51.370Z,18.2
2016-05-10T01:46:01.370Z,18.2
2016-05-10T01:46:11.370Z,18.1
2016-05-10T01:46:21.373Z,18.2
2016-05-10T01:46:31.233Z,18.2
2016-05-10T01:46:41.389Z,18.2
2016-05-10T01:46:51.389Z,18.1
2016-05-10T01:47:01.405Z,18.2
2016-05-10T01:47:11.405Z,18.1
2016-05-10T01:47:21.392Z,18.1
2016-05-10T01:47:31.408Z,18
2016-05-10T01:47:41.392Z,18.2
2016-05-10T01:47:51.408Z,18.2
2016-05-10T01:48:01.408Z,18.1
2016-05-10T01:48:11.283Z,18.1
2016-05-10T01:48:21.425Z,18.1
2016-05-10T01:48:31.410Z,18.1
2016-05-10T01:48:41.425Z,18.2
2016-05-10T01:48:51.425Z,18.1
2016-05-10T01:49:01.425Z,18.2
2016-05-10T01:49:11.441Z,18.1
2016-05-10T01:49:21.443Z,18.1
2016-05-10T01:49:31.427Z,18.1
2016-05-10T01:49:41.443Z,18.2
2016-05-10T01:49:51.443Z,18.2
2016-05-10T01:50:01.443Z,18.1
2016-05-10T01:50:11.443Z,18.1
2016-05-10T01:50:21.446Z,18.1
2016-05-10T01:50:31.446Z,18.1
2016-05-10T01:50:41.446Z,18.1
2016-05-10T01:50:51.462Z,18.2
2016-05-10T01:51:01.477Z,18.2
2016-05-10T01:51:11.571Z,18.1
2016-05-10T01:51:21.465Z,18.1
2016-05-10T01:51:31.605Z,18.1
2016-05-10T01:51:41.465Z,18.1
2016-05-10T01:51:51.465Z,18.1
2016-05-10T01:52:01.480Z,18.1
2016-05-10T01:52:11.480Z,18.1
2016-05-10T01:52:21.483Z,18.2
2016-05-10T01:52:31.483Z,18.1
2016-05-10T01:52:41.483Z,18.1
2016-05-10T01:52:51.483Z,18.1
2016-05-10T01:53:01.343Z,18.1
2016-05-10T01:53:11.343Z,18.1
2016-05-10T01:53:21.502Z,18.2
2016-05-10T01:53:31.346Z,18.1
2016-05-10T01:53:41.502Z,18.1
2016-05-10T01:53:51.502Z,18.1
2016-05-10T01:54:01.502Z,18.1
2016-05-10T01:54:11.517Z,18.1
2016-05-10T01:54:21.363Z,18.1
2016-05-10T01:54:31.519Z,18.1
2016-05-10T01:54:41.363Z,18.2
2016-05-10T01:54:51.519Z,18.1
2016-05-10T01:55:01.519Z,18.1
2016-05-10T01:55:11.535Z,18.1
2016-05-10T01:55:21.538Z,18.1
2016-05-10T01:55:31.538Z,18.1
2016-05-10T01:55:41.382Z,18.2
2016-05-10T01:55:51.538Z,18.2
2016-05-10T01:56:01.538Z,18.1
2016-05-10T01:56:11.538Z,18.1
2016-05-10T01:56:21.540Z,18.2
2016-05-10T01:56:31.556Z,18.1
2016-05-10T01:56:41.556Z,18.2
2016-05-10T01:56:51.556Z,18
2016-05-10T01:57:01.556Z,18.2
2016-05-10T01:57:11.556Z,18.1
2016-05-10T01:57:21.560Z,18.1
2016-05-10T01:57:31.607Z,18.1
2016-05-10T01:57:41.575Z,18.1
2016-05-10T01:57:51.575Z,18.1
2016-05-10T01:58:01.575Z,18.1
2016-05-10T01:58:11.591Z,18.2
2016-05-10T01:58:21.593Z,18.2
2016-05-10T01:58:31.593Z,18.1
2016-05-10T01:58:41.593Z,18.1
2016-05-10T01:58:51.593Z,18.1
2016-05-10T01:59:01.609Z,18.1
2016-05-10T01:59:11.609Z,18.1
2016-05-10T01:59:21.455Z,18.2
2016-05-10T01:59:31.830Z,18
2016-05-10T01:59:41.502Z,18.1
2016-05-10T01:59:52.487Z,18.1
2016-05-10T02:00:01.612Z,18
2016-05-10T02:00:11.612Z,18
2016-05-10T02:00:21.614Z,18.1
2016-05-10T02:00:31.457Z,18.1
2016-05-10T02:00:41.614Z,18.1
2016-05-10T02:00:51.629Z,18
2016-05-10T02:01:01.629Z,18.1
2016-05-10T02:01:11.629Z,18
2016-05-10T02:01:21.632Z,18
2016-05-10T02:01:31.632Z,18
2016-05-10T02:01:41.632Z,18
2016-05-10T02:01:51.648Z,18
2016-05-10T02:02:01.648Z,18
2016-05-10T02:02:11.648Z,18
2016-05-10T02:02:21.650Z,18
2016-05-10T02:02:31.650Z,18.1
2016-05-10T02:02:41.650Z,18.1
2016-05-10T02:02:51.650Z,18.1
2016-05-10T02:03:01.509Z,18
2016-05-10T02:03:11.665Z,18
2016-05-10T02:03:21.668Z,18
2016-05-10T02:03:31.668Z,18
2016-05-10T02:03:41.668Z,18.1
2016-05-10T02:03:51.668Z,18
2016-05-10T02:04:01.668Z,18
2016-05-10T02:04:11.668Z,18
2016-05-10T02:04:21.687Z,18
2016-05-10T02:04:31.687Z,18
2016-05-10T02:04:41.718Z,18
2016-05-10T02:04:51.781Z,18
2016-05-10T02:05:01.937Z,18
2016-05-10T02:05:11.859Z,18
2016-05-10T02:05:21.706Z,17.9
2016-05-10T02:05:31.706Z,18
2016-05-10T02:05:41.721Z,18.1
2016-05-10T02:05:51.549Z,18
2016-05-10T02:06:01.706Z,18
2016-05-10T02:06:11.721Z,17.9
2016-05-10T02:06:21.709Z,18
2016-05-10T02:06:31.724Z,18
2016-05-10T02:06:41.724Z,18
2016-05-10T02:06:51.724Z,18
2016-05-10T02:07:01.724Z,18
2016-05-10T02:07:11.724Z,18
2016-05-10T02:07:21.742Z,18.1
2016-05-10T02:07:31.679Z,18
2016-05-10T02:07:41.586Z,18
2016-05-10T02:07:51.742Z,18
2016-05-10T02:08:01.742Z,18
2016-05-10T02:08:11.742Z,18
2016-05-10T02:08:21.744Z,18
2016-05-10T02:08:31.744Z,18
2016-05-10T02:08:41.760Z,18
2016-05-10T02:08:51.760Z,18
2016-05-10T02:09:01.760Z,18
2016-05-10T02:09:11.760Z,18
2016-05-10T02:09:21.763Z,18
2016-05-10T02:09:31.763Z,17.9
2016-05-10T02:09:41.763Z,18
2016-05-10T02:09:51.622Z,17.9
2016-05-10T02:10:01.778Z,17.9
2016-05-10T02:10:11.778Z,18
2016-05-10T02:10:21.781Z,18
2016-05-10T02:10:31.781Z,18
2016-05-10T02:10:41.781Z,18
2016-05-10T02:10:51.641Z,17.9
2016-05-10T02:11:01.797Z,18.1
2016-05-10T02:11:11.781Z,18
2016-05-10T02:11:21.800Z,18
2016-05-10T02:11:31.800Z,17.9
2016-05-10T02:11:41.800Z,18
2016-05-10T02:11:51.659Z,18
2016-05-10T02:12:01.800Z,17.9
2016-05-10T02:12:11.815Z,18
2016-05-10T02:12:21.818Z,17.9
2016-05-10T02:12:31.818Z,18
2016-05-10T02:12:41.818Z,18
2016-05-10T02:12:51.834Z,17.9
2016-05-10T02:13:01.678Z,18
2016-05-10T02:13:11.834Z,17.9
2016-05-10T02:13:21.680Z,17.9
2016-05-10T02:13:31.680Z,18
2016-05-10T02:13:41.836Z,17.9
2016-05-10T02:13:51.836Z,18
2016-05-10T02:14:01.836Z,18
2016-05-10T02:14:11.961Z,18
2016-05-10T02:14:22.011Z,17.9